sensor_id;sensor_type;location;lat;lon;timestamp;temperature;humidity
36594;DHT22;22603;47.900;8.146;2023-02-18T00:01:18;8.00;99.90
36594;DHT22;22603;47.900;8.146;2023-02-18T00:04:06;8.00;99.90
36594;DHT22;22603;47.900;8.146;2023-02-18T00:06:52;7.90;99.90
36594;DHT22;22603;47.900;8.146;2023-02-18T00:09:39;7.90;99.90
36594;DHT22;22603;47.900;8.146;2023-02-18T00:12:26;7.90;99.90
36594;DHT22;22603;47.900;8.146;2023-02-18T00:15:14;7.90;99.90
36594;DHT22;22603;47.900;8.146;2023-02-18T00:18:00;7.90;99.90
36594;DHT22;22603;47.900;8.146;2023-02-18T00:20:47;8.00;99.90
36594;DHT22;22603;47.900;8.146;2023-02-18T00:23:34;8.00;99.90
36594;DHT22;22603;47.900;8.146;2023-02-18T00:26:21;8.00;99.90
36594;DHT22;22603;47.900;8.146;2023-02-18T00:29:08;8.00;99.90
36594;DHT22;22603;47.900;8.146;2023-02-18T00:31:56;8.00;99.90
36594;DHT22;22603;47.900;8.146;2023-02-18T00:34:44;8.00;99.90
36594;DHT22;22603;47.900;8.146;2023-02-18T00:37:30;8.00;99.90
36594;DHT22;22603;47.900;8.146;2023-02-18T00:40:20;8.00;99.90
36594;DHT22;22603;47.900;8.146;2023-02-18T00:43:07;8.10;99.90
36594;DHT22;22603;47.900;8.146;2023-02-18T00:45:54;8.10;99.90
36594;DHT22;22603;47.900;8.146;2023-02-18T00:48:43;8.00;99.90
36594;DHT22;22603;47.900;8.146;2023-02-18T00:51:30;8.00;99.90
36594;DHT22;22603;47.900;8.146;2023-02-18T00:54:16;7.90;99.90
36594;DHT22;22603;47.900;8.146;2023-02-18T00:57:03;8.00;99.90
36594;DHT22;22603;47.900;8.146;2023-02-18T00:59:50;8.00;99.90
36594;DHT22;22603;47.900;8.146;2023-02-18T01:02:37;8.00;99.90
36594;DHT22;22603;47.900;8.146;2023-02-18T01:05:26;7.90;99.90
36594;DHT22;22603;47.900;8.146;2023-02-18T01:08:13;8.00;99.90
36594;DHT22;22603;47.900;8.146;2023-02-18T01:11:00;8.00;99.90
36594;DHT22;22603;47.900;8.146;2023-02-18T01:13:47;7.90;99.90
36594;DHT22;22603;47.900;8.146;2023-02-18T01:16:34;8.00;99.90
36594;DHT22;22603;47.900;8.146;2023-02-18T01:19:21;8.00;99.90
36594;DHT22;22603;47.900;8.146;2023-02-18T01:22:09;8.00;99.90
36594;DHT22;22603;47.900;8.146;2023-02-18T01:24:56;8.00;99.90
36594;DHT22;22603;47.900;8.146;2023-02-18T01:27:43;8.10;99.90
36594;DHT22;22603;47.900;8.146;2023-02-18T01:30:30;8.10;99.90
36594;DHT22;22603;47.900;8.146;2023-02-18T01:33:18;8.10;99.90
36594;DHT22;22603;47.900;8.146;2023-02-18T01:36:05;8.10;99.90
36594;DHT22;22603;47.900;8.146;2023-02-18T01:38:54;8.10;99.90
36594;DHT22;22603;47.900;8.146;2023-02-18T01:41:41;8.10;99.90
36594;DHT22;22603;47.900;8.146;2023-02-18T01:44:28;8.10;99.90
36594;DHT22;22603;47.900;8.146;2023-02-18T01:47:16;8.10;99.90
36594;DHT22;22603;47.900;8.146;2023-02-18T01:50:05;8.10;99.90
36594;DHT22;22603;47.900;8.146;2023-02-18T01:52:52;8.10;99.90
36594;DHT22;22603;47.900;8.146;2023-02-18T01:55:41;8.10;99.90
36594;DHT22;22603;47.900;8.146;2023-02-18T01:58:27;8.10;99.90
36594;DHT22;22603;47.900;8.146;2023-02-18T02:01:15;8.10;99.90
36594;DHT22;22603;47.900;8.146;2023-02-18T02:04:02;8.10;99.90
36594;DHT22;22603;47.900;8.146;2023-02-18T02:06:48;8.10;99.90
36594;DHT22;22603;47.900;8.146;2023-02-18T02:09:36;8.10;99.90
36594;DHT22;22603;47.900;8.146;2023-02-18T02:12:38;8.10;99.90
36594;DHT22;22603;47.900;8.146;2023-02-18T02:15:35;8.10;99.90
36594;DHT22;22603;47.900;8.146;2023-02-18T02:18:37;8.10;99.90
36594;DHT22;22603;47.900;8.146;2023-02-18T02:21:54;8.10;99.90
36594;DHT22;22603;47.900;8.146;2023-02-18T02:25:07;8.10;99.90
36594;DHT22;22603;47.900;8.146;2023-02-18T02:28:21;8.10;99.90
36594;DHT22;22603;47.900;8.146;2023-02-18T02:34:44;8.10;99.90
36594;DHT22;22603;47.900;8.146;2023-02-18T02:37:39;8.00;99.90
36594;DHT22;22603;47.900;8.146;2023-02-18T02:40:30;8.10;99.90
36594;DHT22;22603;47.900;8.146;2023-02-18T02:43:26;8.10;99.90
36594;DHT22;22603;47.900;8.146;2023-02-18T02:46:18;8.10;99.90
36594;DHT22;22603;47.900;8.146;2023-02-18T02:49:13;8.10;99.90
36594;DHT22;22603;47.900;8.146;2023-02-18T02:52:11;8.10;99.90
36594;DHT22;22603;47.900;8.146;2023-02-18T02:54:59;8.10;99.90
36594;DHT22;22603;47.900;8.146;2023-02-18T02:57:48;8.10;99.90
36594;DHT22;22603;47.900;8.146;2023-02-18T03:00:42;8.00;99.90
36594;DHT22;22603;47.900;8.146;2023-02-18T03:03:59;8.00;99.90
36594;DHT22;22603;47.900;8.146;2023-02-18T03:10:20;8.00;99.90
36594;DHT22;22603;47.900;8.146;2023-02-18T03:13:17;8.00;99.90
36594;DHT22;22603;47.900;8.146;2023-02-18T03:16:15;8.00;99.90
36594;DHT22;22603;47.900;8.146;2023-02-18T03:19:10;8.00;99.90
36594;DHT22;22603;47.900;8.146;2023-02-18T03:22:02;7.90;99.90
36594;DHT22;22603;47.900;8.146;2023-02-18T03:24:51;7.90;99.90
36594;DHT22;22603;47.900;8.146;2023-02-18T03:27:42;7.90;99.90
36594;DHT22;22603;47.900;8.146;2023-02-18T03:30:36;7.90;99.90
36594;DHT22;22603;47.900;8.146;2023-02-18T03:33:28;8.00;99.90
36594;DHT22;22603;47.900;8.146;2023-02-18T03:36:18;7.90;99.90
36594;DHT22;22603;47.900;8.146;2023-02-18T03:39:09;7.90;99.90
36594;DHT22;22603;47.900;8.146;2023-02-18T03:41:57;7.90;99.90
36594;DHT22;22603;47.900;8.146;2023-02-18T03:44:45;7.90;99.90
36594;DHT22;22603;47.900;8.146;2023-02-18T03:47:33;7.90;99.90
36594;DHT22;22603;47.900;8.146;2023-02-18T03:50:20;7.90;99.90
36594;DHT22;22603;47.900;8.146;2023-02-18T03:53:07;7.90;99.90
36594;DHT22;22603;47.900;8.146;2023-02-18T03:55:54;7.90;99.90
36594;DHT22;22603;47.900;8.146;2023-02-18T03:58:41;7.90;99.90
36594;DHT22;22603;47.900;8.146;2023-02-18T04:01:29;7.90;99.90
36594;DHT22;22603;47.900;8.146;2023-02-18T04:04:17;7.90;99.90
36594;DHT22;22603;47.900;8.146;2023-02-18T04:07:04;7.90;99.90
36594;DHT22;22603;47.900;8.146;2023-02-18T04:09:51;7.90;99.90
36594;DHT22;22603;47.900;8.146;2023-02-18T04:12:38;7.90;99.90
36594;DHT22;22603;47.900;8.146;2023-02-18T04:15:25;7.90;99.90
36594;DHT22;22603;47.900;8.146;2023-02-18T04:18:13;7.90;99.90
36594;DHT22;22603;47.900;8.146;2023-02-18T04:21:00;7.80;99.90
36594;DHT22;22603;47.900;8.146;2023-02-18T04:23:47;7.80;99.90
36594;DHT22;22603;47.900;8.146;2023-02-18T04:26:34;7.80;99.90
36594;DHT22;22603;47.900;8.146;2023-02-18T04:29:21;7.80;99.90
36594;DHT22;22603;47.900;8.146;2023-02-18T04:32:08;7.80;99.90
36594;DHT22;22603;47.900;8.146;2023-02-18T04:34:56;7.80;99.90
36594;DHT22;22603;47.900;8.146;2023-02-18T04:37:43;7.80;99.90
36594;DHT22;22603;47.900;8.146;2023-02-18T04:40:30;7.80;99.90
36594;DHT22;22603;47.900;8.146;2023-02-18T04:43:16;7.80;99.90
36594;DHT22;22603;47.900;8.146;2023-02-18T04:46:04;7.90;99.90
36594;DHT22;22603;47.900;8.146;2023-02-18T04:48:53;7.90;99.90
36594;DHT22;22603;47.900;8.146;2023-02-18T04:51:42;7.80;99.90
36594;DHT22;22603;47.900;8.146;2023-02-18T04:54:29;7.80;99.90
36594;DHT22;22603;47.900;8.146;2023-02-18T04:57:16;7.80;99.90
36594;DHT22;22603;47.900;8.146;2023-02-18T05:00:04;7.80;99.90
36594;DHT22;22603;47.900;8.146;2023-02-18T05:02:51;7.80;99.90
36594;DHT22;22603;47.900;8.146;2023-02-18T05:05:38;7.80;99.90
36594;DHT22;22603;47.900;8.146;2023-02-18T05:08:27;7.90;99.90
36594;DHT22;22603;47.900;8.146;2023-02-18T05:11:14;7.80;99.90
36594;DHT22;22603;47.900;8.146;2023-02-18T05:14:01;7.80;99.90
36594;DHT22;22603;47.900;8.146;2023-02-18T05:16:48;7.80;99.90
36594;DHT22;22603;47.900;8.146;2023-02-18T05:19:35;7.80;99.90
36594;DHT22;22603;47.900;8.146;2023-02-18T05:22:22;7.70;99.90
36594;DHT22;22603;47.900;8.146;2023-02-18T05:25:11;7.70;99.90
36594;DHT22;22603;47.900;8.146;2023-02-18T05:27:58;7.70;99.90
36594;DHT22;22603;47.900;8.146;2023-02-18T05:30:45;7.60;99.90
36594;DHT22;22603;47.900;8.146;2023-02-18T05:33:32;7.60;99.90
36594;DHT22;22603;47.900;8.146;2023-02-18T05:36:19;7.60;99.90
36594;DHT22;22603;47.900;8.146;2023-02-18T05:39:06;7.70;99.90
36594;DHT22;22603;47.900;8.146;2023-02-18T05:41:56;7.60;99.90
36594;DHT22;22603;47.900;8.146;2023-02-18T05:44:43;7.60;99.90
36594;DHT22;22603;47.900;8.146;2023-02-18T05:47:31;7.50;99.90
36594;DHT22;22603;47.900;8.146;2023-02-18T05:50:18;7.50;99.90
36594;DHT22;22603;47.900;8.146;2023-02-18T05:53:04;7.60;99.90
36594;DHT22;22603;47.900;8.146;2023-02-18T05:55:51;7.60;99.90
36594;DHT22;22603;47.900;8.146;2023-02-18T05:58:40;7.60;99.90
36594;DHT22;22603;47.900;8.146;2023-02-18T06:01:27;7.70;99.90
36594;DHT22;22603;47.900;8.146;2023-02-18T06:04:14;7.60;99.90
36594;DHT22;22603;47.900;8.146;2023-02-18T06:07:02;7.60;99.90
36594;DHT22;22603;47.900;8.146;2023-02-18T06:09:49;7.60;99.90
36594;DHT22;22603;47.900;8.146;2023-02-18T06:12:36;7.60;99.90
36594;DHT22;22603;47.900;8.146;2023-02-18T06:15:24;7.60;99.90
36594;DHT22;22603;47.900;8.146;2023-02-18T06:18:11;7.60;99.90
36594;DHT22;22603;47.900;8.146;2023-02-18T06:20:58;7.60;99.90
36594;DHT22;22603;47.900;8.146;2023-02-18T06:23:46;7.60;99.90
36594;DHT22;22603;47.900;8.146;2023-02-18T06:26:33;7.60;99.90
36594;DHT22;22603;47.900;8.146;2023-02-18T06:29:20;7.60;99.90
36594;DHT22;22603;47.900;8.146;2023-02-18T06:32:08;7.80;99.90
36594;DHT22;22603;47.900;8.146;2023-02-18T06:34:56;7.80;99.90
36594;DHT22;22603;47.900;8.146;2023-02-18T06:37:42;7.80;99.90
36594;DHT22;22603;47.900;8.146;2023-02-18T06:40:30;7.90;99.90
36594;DHT22;22603;47.900;8.146;2023-02-18T06:43:17;7.80;99.90
36594;DHT22;22603;47.900;8.146;2023-02-18T06:46:05;7.90;99.90
36594;DHT22;22603;47.900;8.146;2023-02-18T06:48:54;7.90;99.90
36594;DHT22;22603;47.900;8.146;2023-02-18T06:51:41;7.90;99.90
36594;DHT22;22603;47.900;8.146;2023-02-18T06:54:29;7.90;99.90
36594;DHT22;22603;47.900;8.146;2023-02-18T06:57:20;7.90;99.90
36594;DHT22;22603;47.900;8.146;2023-02-18T07:00:09;8.00;99.90
36594;DHT22;22603;47.900;8.146;2023-02-18T07:02:57;8.00;99.90
36594;DHT22;22603;47.900;8.146;2023-02-18T07:05:46;8.00;99.90
36594;DHT22;22603;47.900;8.146;2023-02-18T07:08:35;8.00;99.90
36594;DHT22;22603;47.900;8.146;2023-02-18T07:11:23;7.90;99.90
36594;DHT22;22603;47.900;8.146;2023-02-18T07:14:11;8.00;99.90
36594;DHT22;22603;47.900;8.146;2023-02-18T07:16:58;8.10;99.90
36594;DHT22;22603;47.900;8.146;2023-02-18T07:19:46;8.10;99.90
36594;DHT22;22603;47.900;8.146;2023-02-18T07:22:35;8.10;99.90
36594;DHT22;22603;47.900;8.146;2023-02-18T07:25:23;8.20;99.90
36594;DHT22;22603;47.900;8.146;2023-02-18T07:28:10;8.20;99.90
36594;DHT22;22603;47.900;8.146;2023-02-18T07:30:57;8.10;99.90
36594;DHT22;22603;47.900;8.146;2023-02-18T07:33:44;8.20;99.90
36594;DHT22;22603;47.900;8.146;2023-02-18T07:36:32;8.20;99.90
36594;DHT22;22603;47.900;8.146;2023-02-18T07:39:20;8.30;99.90
36594;DHT22;22603;47.900;8.146;2023-02-18T07:42:07;8.30;99.90
36594;DHT22;22603;47.900;8.146;2023-02-18T07:44:54;8.30;99.90
36594;DHT22;22603;47.900;8.146;2023-02-18T07:47:42;8.40;99.90
36594;DHT22;22603;47.900;8.146;2023-02-18T07:50:29;8.50;99.90
36594;DHT22;22603;47.900;8.146;2023-02-18T07:53:19;8.40;99.90
36594;DHT22;22603;47.900;8.146;2023-02-18T07:56:08;8.40;99.90
36594;DHT22;22603;47.900;8.146;2023-02-18T07:58:55;8.50;99.90
36594;DHT22;22603;47.900;8.146;2023-02-18T08:01:42;8.50;99.90
36594;DHT22;22603;47.900;8.146;2023-02-18T08:04:29;8.50;99.90
36594;DHT22;22603;47.900;8.146;2023-02-18T08:07:19;8.50;99.90
36594;DHT22;22603;47.900;8.146;2023-02-18T08:10:07;8.50;99.90
36594;DHT22;22603;47.900;8.146;2023-02-18T08:12:55;8.50;99.90
36594;DHT22;22603;47.900;8.146;2023-02-18T08:15:42;8.60;99.90
36594;DHT22;22603;47.900;8.146;2023-02-18T08:18:29;8.50;99.90
36594;DHT22;22603;47.900;8.146;2023-02-18T08:21:17;8.50;99.90
36594;DHT22;22603;47.900;8.146;2023-02-18T08:24:05;8.50;99.90
36594;DHT22;22603;47.900;8.146;2023-02-18T08:26:53;8.60;99.90
36594;DHT22;22603;47.900;8.146;2023-02-18T08:29:47;8.60;99.90
36594;DHT22;22603;47.900;8.146;2023-02-18T08:32:34;8.60;99.90
36594;DHT22;22603;47.900;8.146;2023-02-18T08:35:21;8.70;99.90
36594;DHT22;22603;47.900;8.146;2023-02-18T08:38:09;8.60;99.90
36594;DHT22;22603;47.900;8.146;2023-02-18T08:41:00;8.60;99.90
36594;DHT22;22603;47.900;8.146;2023-02-18T08:43:48;8.70;99.90
36594;DHT22;22603;47.900;8.146;2023-02-18T08:46:37;8.70;99.90
36594;DHT22;22603;47.900;8.146;2023-02-18T08:49:24;8.60;99.90
36594;DHT22;22603;47.900;8.146;2023-02-18T08:52:11;8.60;99.90
36594;DHT22;22603;47.900;8.146;2023-02-18T08:54:59;8.70;99.90
36594;DHT22;22603;47.900;8.146;2023-02-18T08:57:46;8.70;99.90
36594;DHT22;22603;47.900;8.146;2023-02-18T09:00:33;8.80;99.90
36594;DHT22;22603;47.900;8.146;2023-02-18T09:03:22;8.90;99.90
36594;DHT22;22603;47.900;8.146;2023-02-18T09:06:09;8.90;99.90
36594;DHT22;22603;47.900;8.146;2023-02-18T09:08:56;9.00;99.90
36594;DHT22;22603;47.900;8.146;2023-02-18T09:11:43;9.10;99.90
36594;DHT22;22603;47.900;8.146;2023-02-18T09:14:30;9.10;99.90
36594;DHT22;22603;47.900;8.146;2023-02-18T09:17:18;9.10;99.90
36594;DHT22;22603;47.900;8.146;2023-02-18T09:20:07;9.00;99.90
36594;DHT22;22603;47.900;8.146;2023-02-18T09:22:55;9.10;99.90
36594;DHT22;22603;47.900;8.146;2023-02-18T09:25:42;9.10;99.90
36594;DHT22;22603;47.900;8.146;2023-02-18T09:28:29;9.10;99.90
36594;DHT22;22603;47.900;8.146;2023-02-18T09:31:18;8.90;99.90
36594;DHT22;22603;47.900;8.146;2023-02-18T09:34:05;9.00;99.90
36594;DHT22;22603;47.900;8.146;2023-02-18T09:36:54;9.00;99.90
36594;DHT22;22603;47.900;8.146;2023-02-18T09:39:41;9.10;99.90
36594;DHT22;22603;47.900;8.146;2023-02-18T09:42:31;9.00;99.90
36594;DHT22;22603;47.900;8.146;2023-02-18T09:45:19;9.00;99.90
36594;DHT22;22603;47.900;8.146;2023-02-18T09:48:08;9.10;99.90
36594;DHT22;22603;47.900;8.146;2023-02-18T09:50:55;9.10;99.90
36594;DHT22;22603;47.900;8.146;2023-02-18T09:53:45;9.10;99.90
36594;DHT22;22603;47.900;8.146;2023-02-18T09:56:32;9.10;99.90
36594;DHT22;22603;47.900;8.146;2023-02-18T09:59:25;9.00;99.90
36594;DHT22;22603;47.900;8.146;2023-02-18T10:02:13;9.10;99.90
36594;DHT22;22603;47.900;8.146;2023-02-18T10:05:02;9.20;99.90
36594;DHT22;22603;47.900;8.146;2023-02-18T10:07:53;9.30;99.90
36594;DHT22;22603;47.900;8.146;2023-02-18T10:10:43;9.30;99.90
36594;DHT22;22603;47.900;8.146;2023-02-18T10:13:32;9.40;99.90
36594;DHT22;22603;47.900;8.146;2023-02-18T10:16:22;9.40;99.90
36594;DHT22;22603;47.900;8.146;2023-02-18T10:19:20;9.30;99.90
36594;DHT22;22603;47.900;8.146;2023-02-18T10:22:09;9.40;99.90
36594;DHT22;22603;47.900;8.146;2023-02-18T10:25:01;9.30;99.90
36594;DHT22;22603;47.900;8.146;2023-02-18T10:27:52;9.10;99.90
36594;DHT22;22603;47.900;8.146;2023-02-18T10:30:41;9.00;99.90
36594;DHT22;22603;47.900;8.146;2023-02-18T10:33:34;9.10;99.90
36594;DHT22;22603;47.900;8.146;2023-02-18T10:36:24;9.20;99.90
36594;DHT22;22603;47.900;8.146;2023-02-18T10:39:30;9.30;99.90
36594;DHT22;22603;47.900;8.146;2023-02-18T10:42:27;9.50;99.90
36594;DHT22;22603;47.900;8.146;2023-02-18T10:45:29;9.70;99.90
36594;DHT22;22603;47.900;8.146;2023-02-18T10:48:41;9.80;99.90
36594;DHT22;22603;47.900;8.146;2023-02-18T10:51:32;9.60;99.90
36594;DHT22;22603;47.900;8.146;2023-02-18T10:54:23;9.70;99.90
36594;DHT22;22603;47.900;8.146;2023-02-18T10:57:16;9.80;99.90
36594;DHT22;22603;47.900;8.146;2023-02-18T11:00:15;9.90;99.90
36594;DHT22;22603;47.900;8.146;2023-02-18T11:03:14;9.60;99.90
36594;DHT22;22603;47.900;8.146;2023-02-18T11:06:01;9.30;99.90
36594;DHT22;22603;47.900;8.146;2023-02-18T11:08:49;9.30;99.90
36594;DHT22;22603;47.900;8.146;2023-02-18T11:11:38;9.50;99.90
36594;DHT22;22603;47.900;8.146;2023-02-18T11:14:36;9.40;99.90
36594;DHT22;22603;47.900;8.146;2023-02-18T11:17:26;9.60;99.90
36594;DHT22;22603;47.900;8.146;2023-02-18T11:20:29;9.90;99.90
36594;DHT22;22603;47.900;8.146;2023-02-18T11:23:19;9.80;99.90
36594;DHT22;22603;47.900;8.146;2023-02-18T11:26:11;9.70;99.90
36594;DHT22;22603;47.900;8.146;2023-02-18T11:29:01;9.70;99.90
36594;DHT22;22603;47.900;8.146;2023-02-18T11:31:51;9.80;99.90
36594;DHT22;22603;47.900;8.146;2023-02-18T11:34:41;10.00;99.90
36594;DHT22;22603;47.900;8.146;2023-02-18T11:37:32;9.90;99.90
36594;DHT22;22603;47.900;8.146;2023-02-18T11:40:22;9.90;99.90
36594;DHT22;22603;47.900;8.146;2023-02-18T11:43:12;9.80;99.90
36594;DHT22;22603;47.900;8.146;2023-02-18T11:46:12;9.60;99.90
36594;DHT22;22603;47.900;8.146;2023-02-18T11:49:19;9.40;99.90
36594;DHT22;22603;47.900;8.146;2023-02-18T11:52:16;9.30;99.90
36594;DHT22;22603;47.900;8.146;2023-02-18T11:55:07;9.40;99.90
36594;DHT22;22603;47.900;8.146;2023-02-18T11:58:02;9.30;99.90
36594;DHT22;22603;47.900;8.146;2023-02-18T12:00:50;9.50;99.90
36594;DHT22;22603;47.900;8.146;2023-02-18T12:03:43;9.60;99.90
36594;DHT22;22603;47.900;8.146;2023-02-18T12:06:34;9.50;99.90
36594;DHT22;22603;47.900;8.146;2023-02-18T12:09:28;9.40;99.90
36594;DHT22;22603;47.900;8.146;2023-02-18T12:12:24;9.50;99.90
36594;DHT22;22603;47.900;8.146;2023-02-18T12:15:16;9.60;99.90
36594;DHT22;22603;47.900;8.146;2023-02-18T12:21:29;9.90;99.90
36594;DHT22;22603;47.900;8.146;2023-02-18T12:24:39;10.10;99.90
36594;DHT22;22603;47.900;8.146;2023-02-18T12:27:37;9.90;99.90
36594;DHT22;22603;47.900;8.146;2023-02-18T12:30:40;9.80;99.90
36594;DHT22;22603;47.900;8.146;2023-02-18T12:33:37;9.80;99.90
36594;DHT22;22603;47.900;8.146;2023-02-18T12:36:38;9.80;99.90
36594;DHT22;22603;47.900;8.146;2023-02-18T12:39:38;9.60;99.90
36594;DHT22;22603;47.900;8.146;2023-02-18T12:42:38;9.80;99.90
36594;DHT22;22603;47.900;8.146;2023-02-18T12:45:51;9.70;99.90
36594;DHT22;22603;47.900;8.146;2023-02-18T12:48:51;9.80;99.90
36594;DHT22;22603;47.900;8.146;2023-02-18T12:52:00;9.60;99.90
36594;DHT22;22603;47.900;8.146;2023-02-18T12:58:30;9.60;99.90
36594;DHT22;22603;47.900;8.146;2023-02-18T13:01:40;9.90;99.90
36594;DHT22;22603;47.900;8.146;2023-02-18T13:04:45;9.70;99.90
36594;DHT22;22603;47.900;8.146;2023-02-18T13:07:53;9.50;99.90
36594;DHT22;22603;47.900;8.146;2023-02-18T13:10:55;9.70;99.90
36594;DHT22;22603;47.900;8.146;2023-02-18T13:13:54;9.90;99.90
36594;DHT22;22603;47.900;8.146;2023-02-18T13:16:47;10.00;99.90
36594;DHT22;22603;47.900;8.146;2023-02-18T13:19:43;10.00;99.90
36594;DHT22;22603;47.900;8.146;2023-02-18T13:22:31;10.10;99.90
36594;DHT22;22603;47.900;8.146;2023-02-18T13:25:19;10.10;99.90
36594;DHT22;22603;47.900;8.146;2023-02-18T13:28:17;9.90;99.90
36594;DHT22;22603;47.900;8.146;2023-02-18T13:31:18;9.90;99.90
36594;DHT22;22603;47.900;8.146;2023-02-18T13:34:14;9.70;99.90
36594;DHT22;22603;47.900;8.146;2023-02-18T13:37:10;9.60;99.90
36594;DHT22;22603;47.900;8.146;2023-02-18T13:40:03;9.80;99.90
36594;DHT22;22603;47.900;8.146;2023-02-18T13:42:50;9.80;99.90
36594;DHT22;22603;47.900;8.146;2023-02-18T13:45:40;9.80;99.90
36594;DHT22;22603;47.900;8.146;2023-02-18T13:48:29;9.80;99.90
36594;DHT22;22603;47.900;8.146;2023-02-18T13:51:27;9.60;99.90
36594;DHT22;22603;47.900;8.146;2023-02-18T13:54:19;9.90;99.90
36594;DHT22;22603;47.900;8.146;2023-02-18T13:57:13;10.00;99.90
36594;DHT22;22603;47.900;8.146;2023-02-18T14:00:04;10.10;99.90
36594;DHT22;22603;47.900;8.146;2023-02-18T14:02:56;10.00;99.90
36594;DHT22;22603;47.900;8.146;2023-02-18T14:05:45;9.70;99.90
36594;DHT22;22603;47.900;8.146;2023-02-18T14:08:34;9.80;99.90
36594;DHT22;22603;47.900;8.146;2023-02-18T14:11:39;9.70;99.90
36594;DHT22;22603;47.900;8.146;2023-02-18T14:14:39;9.60;99.90
36594;DHT22;22603;47.900;8.146;2023-02-18T14:17:34;9.70;99.90
36594;DHT22;22603;47.900;8.146;2023-02-18T14:20:46;9.60;99.90
36594;DHT22;22603;47.900;8.146;2023-02-18T14:23:42;9.60;99.90
36594;DHT22;22603;47.900;8.146;2023-02-18T14:26:32;9.70;99.90
36594;DHT22;22603;47.900;8.146;2023-02-18T14:29:26;9.60;99.90
36594;DHT22;22603;47.900;8.146;2023-02-18T14:32:17;9.60;99.90
36594;DHT22;22603;47.900;8.146;2023-02-18T14:35:19;9.60;99.90
36594;DHT22;22603;47.900;8.146;2023-02-18T14:38:22;9.60;99.90
36594;DHT22;22603;47.900;8.146;2023-02-18T14:41:43;9.60;99.90
36594;DHT22;22603;47.900;8.146;2023-02-18T14:44:44;9.70;99.90
36594;DHT22;22603;47.900;8.146;2023-02-18T14:47:43;9.60;99.90
36594;DHT22;22603;47.900;8.146;2023-02-18T14:50:38;9.40;99.90
36594;DHT22;22603;47.900;8.146;2023-02-18T14:53:28;9.50;99.90
36594;DHT22;22603;47.900;8.146;2023-02-18T14:56:18;9.60;99.90
36594;DHT22;22603;47.900;8.146;2023-02-18T14:59:06;9.60;99.90
36594;DHT22;22603;47.900;8.146;2023-02-18T15:01:55;9.60;99.90
36594;DHT22;22603;47.900;8.146;2023-02-18T15:04:42;9.60;99.90
36594;DHT22;22603;47.900;8.146;2023-02-18T15:07:30;9.70;99.90
36594;DHT22;22603;47.900;8.146;2023-02-18T15:10:20;9.60;99.90
36594;DHT22;22603;47.900;8.146;2023-02-18T15:13:13;9.60;99.90
36594;DHT22;22603;47.900;8.146;2023-02-18T15:16:02;9.60;99.90
36594;DHT22;22603;47.900;8.146;2023-02-18T15:18:53;9.70;99.90
36594;DHT22;22603;47.900;8.146;2023-02-18T15:21:43;9.70;99.90
36594;DHT22;22603;47.900;8.146;2023-02-18T15:24:32;9.70;99.90
36594;DHT22;22603;47.900;8.146;2023-02-18T15:27:22;9.80;99.90
36594;DHT22;22603;47.900;8.146;2023-02-18T15:30:20;9.70;99.90
36594;DHT22;22603;47.900;8.146;2023-02-18T15:33:15;9.70;99.90
36594;DHT22;22603;47.900;8.146;2023-02-18T15:36:16;9.60;99.90
36594;DHT22;22603;47.900;8.146;2023-02-18T15:39:03;9.60;99.90
36594;DHT22;22603;47.900;8.146;2023-02-18T15:41:52;9.60;99.90
36594;DHT22;22603;47.900;8.146;2023-02-18T15:44:45;9.40;99.90
36594;DHT22;22603;47.900;8.146;2023-02-18T15:47:33;9.30;99.90
36594;DHT22;22603;47.900;8.146;2023-02-18T15:50:23;9.30;99.90
36594;DHT22;22603;47.900;8.146;2023-02-18T15:53:14;9.20;99.90
36594;DHT22;22603;47.900;8.146;2023-02-18T15:56:05;9.20;99.90
36594;DHT22;22603;47.900;8.146;2023-02-18T15:59:06;9.10;99.90
36594;DHT22;22603;47.900;8.146;2023-02-18T16:02:02;9.10;99.90
36594;DHT22;22603;47.900;8.146;2023-02-18T16:04:58;9.00;99.90
36594;DHT22;22603;47.900;8.146;2023-02-18T16:07:51;9.00;99.90
36594;DHT22;22603;47.900;8.146;2023-02-18T16:10:45;8.90;99.90
36594;DHT22;22603;47.900;8.146;2023-02-18T16:13:33;8.90;99.90
36594;DHT22;22603;47.900;8.146;2023-02-18T16:16:23;8.90;99.90
36594;DHT22;22603;47.900;8.146;2023-02-18T16:19:23;8.80;99.90
36594;DHT22;22603;47.900;8.146;2023-02-18T16:22:26;8.80;99.90
36594;DHT22;22603;47.900;8.146;2023-02-18T16:25:16;8.80;99.90
36594;DHT22;22603;47.900;8.146;2023-02-18T16:28:10;8.70;99.90
36594;DHT22;22603;47.900;8.146;2023-02-18T16:30:58;8.70;99.90
36594;DHT22;22603;47.900;8.146;2023-02-18T16:33:45;8.60;99.90
36594;DHT22;22603;47.900;8.146;2023-02-18T16:36:33;8.50;99.90
36594;DHT22;22603;47.900;8.146;2023-02-18T16:39:20;8.40;99.90
36594;DHT22;22603;47.900;8.146;2023-02-18T16:42:08;8.40;99.90
36594;DHT22;22603;47.900;8.146;2023-02-18T16:44:56;8.30;99.90
36594;DHT22;22603;47.900;8.146;2023-02-18T16:47:44;8.30;99.90
36594;DHT22;22603;47.900;8.146;2023-02-18T16:50:32;8.20;99.90
36594;DHT22;22603;47.900;8.146;2023-02-18T16:53:21;8.20;99.90
36594;DHT22;22603;47.900;8.146;2023-02-18T16:56:13;8.10;99.90
36594;DHT22;22603;47.900;8.146;2023-02-18T16:59:00;8.00;99.90
36594;DHT22;22603;47.900;8.146;2023-02-18T17:01:47;7.90;99.90
36594;DHT22;22603;47.900;8.146;2023-02-18T17:04:35;7.90;99.90
36594;DHT22;22603;47.900;8.146;2023-02-18T17:07:22;7.80;99.90
36594;DHT22;22603;47.900;8.146;2023-02-18T17:10:10;7.80;99.90
36594;DHT22;22603;47.900;8.146;2023-02-18T17:12:58;7.70;99.90
36594;DHT22;22603;47.900;8.146;2023-02-18T17:15:47;7.60;99.90
36594;DHT22;22603;47.900;8.146;2023-02-18T17:18:35;7.50;99.90
36594;DHT22;22603;47.900;8.146;2023-02-18T17:21:23;7.40;99.90
36594;DHT22;22603;47.900;8.146;2023-02-18T17:24:11;7.20;99.90
36594;DHT22;22603;47.900;8.146;2023-02-18T17:27:00;7.10;99.90
36594;DHT22;22603;47.900;8.146;2023-02-18T17:29:47;7.00;99.90
36594;DHT22;22603;47.900;8.146;2023-02-18T17:32:34;6.90;99.90
36594;DHT22;22603;47.900;8.146;2023-02-18T17:35:21;6.90;99.90
36594;DHT22;22603;47.900;8.146;2023-02-18T17:38:09;6.90;99.90
36594;DHT22;22603;47.900;8.146;2023-02-18T17:40:56;7.00;99.90
36594;DHT22;22603;47.900;8.146;2023-02-18T17:43:45;7.10;99.90
36594;DHT22;22603;47.900;8.146;2023-02-18T17:46:32;7.10;99.90
36594;DHT22;22603;47.900;8.146;2023-02-18T17:49:19;7.10;99.90
36594;DHT22;22603;47.900;8.146;2023-02-18T17:52:12;7.20;99.90
36594;DHT22;22603;47.900;8.146;2023-02-18T17:55:20;7.10;99.90
36594;DHT22;22603;47.900;8.146;2023-02-18T17:58:08;7.20;99.90
36594;DHT22;22603;47.900;8.146;2023-02-18T18:00:57;7.10;99.90
36594;DHT22;22603;47.900;8.146;2023-02-18T18:03:45;7.00;99.90
36594;DHT22;22603;47.900;8.146;2023-02-18T18:06:32;7.00;99.90
36594;DHT22;22603;47.900;8.146;2023-02-18T18:09:20;7.10;99.90
36594;DHT22;22603;47.900;8.146;2023-02-18T18:12:08;7.30;99.90
36594;DHT22;22603;47.900;8.146;2023-02-18T18:14:55;7.30;99.90
36594;DHT22;22603;47.900;8.146;2023-02-18T18:17:43;7.30;99.90
36594;DHT22;22603;47.900;8.146;2023-02-18T18:20:32;7.30;99.90
36594;DHT22;22603;47.900;8.146;2023-02-18T18:23:20;7.30;99.90
36594;DHT22;22603;47.900;8.146;2023-02-18T18:26:08;7.30;99.90
36594;DHT22;22603;47.900;8.146;2023-02-18T18:28:55;7.20;99.90